sensor_id;sensor_type;location;lat;lon;timestamp;temperature;humidity
53978;DHT22;39886;47.984;-1.586;2022-08-19T00:00:13;25.50;58.80
53978;DHT22;39886;47.984;-1.586;2022-08-19T00:02:40;25.50;58.10
53978;DHT22;39886;47.984;-1.586;2022-08-19T00:05:07;25.50;58.20
53978;DHT22;39886;47.984;-1.586;2022-08-19T00:07:33;25.50;58.20
53978;DHT22;39886;47.984;-1.586;2022-08-19T00:09:59;25.40;58.70
53978;DHT22;39886;47.984;-1.586;2022-08-19T00:12:25;25.50;58.20
53978;DHT22;39886;47.984;-1.586;2022-08-19T00:14:51;25.40;58.20
53978;DHT22;39886;47.984;-1.586;2022-08-19T00:17:19;25.40;58.10
53978;DHT22;39886;47.984;-1.586;2022-08-19T00:19:46;25.40;58.20
53978;DHT22;39886;47.984;-1.586;2022-08-19T00:22:11;25.40;58.20
53978;DHT22;39886;47.984;-1.586;2022-08-19T00:24:37;25.40;58.20
53978;DHT22;39886;47.984;-1.586;2022-08-19T00:27:04;25.40;58.20
53978;DHT22;39886;47.984;-1.586;2022-08-19T00:29:30;25.40;58.30
53978;DHT22;39886;47.984;-1.586;2022-08-19T00:31:57;25.40;58.20
53978;DHT22;39886;47.984;-1.586;2022-08-19T00:34:25;25.40;58.30
53978;DHT22;39886;47.984;-1.586;2022-08-19T00:36:54;25.40;58.30
53978;DHT22;39886;47.984;-1.586;2022-08-19T00:39:20;25.40;58.30
53978;DHT22;39886;47.984;-1.586;2022-08-19T00:41:46;25.30;58.20
53978;DHT22;39886;47.984;-1.586;2022-08-19T00:44:20;25.30;58.20
53978;DHT22;39886;47.984;-1.586;2022-08-19T00:46:48;25.30;58.20
53978;DHT22;39886;47.984;-1.586;2022-08-19T00:49:15;25.30;58.30
53978;DHT22;39886;47.984;-1.586;2022-08-19T00:51:44;25.30;58.30
53978;DHT22;39886;47.984;-1.586;2022-08-19T00:54:10;25.30;58.30
53978;DHT22;39886;47.984;-1.586;2022-08-19T00:56:36;25.30;58.30
53978;DHT22;39886;47.984;-1.586;2022-08-19T00:59:04;25.30;58.30
53978;DHT22;39886;47.984;-1.586;2022-08-19T01:01:37;25.30;58.30
53978;DHT22;39886;47.984;-1.586;2022-08-19T01:04:04;25.30;58.40
53978;DHT22;39886;47.984;-1.586;2022-08-19T01:06:31;25.30;58.40
53978;DHT22;39886;47.984;-1.586;2022-08-19T01:08:58;25.30;58.40
53978;DHT22;39886;47.984;-1.586;2022-08-19T01:11:26;25.30;58.40
53978;DHT22;39886;47.984;-1.586;2022-08-19T01:13:53;25.30;58.40
53978;DHT22;39886;47.984;-1.586;2022-08-19T01:16:22;25.30;58.40
53978;DHT22;39886;47.984;-1.586;2022-08-19T01:18:49;25.30;58.40
53978;DHT22;39886;47.984;-1.586;2022-08-19T01:21:42;25.30;58.40
53978;DHT22;39886;47.984;-1.586;2022-08-19T01:24:11;25.30;58.50
53978;DHT22;39886;47.984;-1.586;2022-08-19T01:26:41;25.30;58.50
53978;DHT22;39886;47.984;-1.586;2022-08-19T01:29:09;25.30;58.50
53978;DHT22;39886;47.984;-1.586;2022-08-19T01:31:34;25.30;58.50
53978;DHT22;39886;47.984;-1.586;2022-08-19T01:34:01;25.20;58.40
53978;DHT22;39886;47.984;-1.586;2022-08-19T01:36:38;25.20;58.40
53978;DHT22;39886;47.984;-1.586;2022-08-19T01:39:07;25.20;58.40
53978;DHT22;39886;47.984;-1.586;2022-08-19T01:41:34;25.20;58.50
53978;DHT22;39886;47.984;-1.586;2022-08-19T01:43:59;25.20;58.40
53978;DHT22;39886;47.984;-1.586;2022-08-19T01:46:28;25.20;58.40
53978;DHT22;39886;47.984;-1.586;2022-08-19T01:48:54;25.20;58.50
53978;DHT22;39886;47.984;-1.586;2022-08-19T01:51:20;25.20;58.40
53978;DHT22;39886;47.984;-1.586;2022-08-19T01:53:50;25.20;58.50
53978;DHT22;39886;47.984;-1.586;2022-08-19T01:56:17;25.20;58.50
53978;DHT22;39886;47.984;-1.586;2022-08-19T01:59:12;25.20;58.50
53978;DHT22;39886;47.984;-1.586;2022-08-19T02:01:40;25.10;58.50
53978;DHT22;39886;47.984;-1.586;2022-08-19T02:04:06;25.20;58.50
53978;DHT22;39886;47.984;-1.586;2022-08-19T02:06:32;25.10;58.40
53978;DHT22;39886;47.984;-1.586;2022-08-19T02:08:59;25.20;58.50
53978;DHT22;39886;47.984;-1.586;2022-08-19T02:11:30;25.20;58.50
53978;DHT22;39886;47.984;-1.586;2022-08-19T02:13:57;25.20;58.50
53978;DHT22;39886;47.984;-1.586;2022-08-19T02:16:23;25.20;58.50
53978;DHT22;39886;47.984;-1.586;2022-08-19T02:18:50;25.10;58.50
53978;DHT22;39886;47.984;-1.586;2022-08-19T02:21:17;25.10;58.50
53978;DHT22;39886;47.984;-1.586;2022-08-19T02:23:43;25.10;58.50
53978;DHT22;39886;47.984;-1.586;2022-08-19T02:26:09;25.10;58.50
53978;DHT22;39886;47.984;-1.586;2022-08-19T02:28:35;25.10;58.50
53978;DHT22;39886;47.984;-1.586;2022-08-19T02:31:03;25.10;58.50
53978;DHT22;39886;47.984;-1.586;2022-08-19T02:33:29;25.10;58.50
53978;DHT22;39886;47.984;-1.586;2022-08-19T02:35:55;25.10;58.50
53978;DHT22;39886;47.984;-1.586;2022-08-19T02:38:21;25.10;58.50
53978;DHT22;39886;47.984;-1.586;2022-08-19T02:40:58;25.10;58.50
53978;DHT22;39886;47.984;-1.586;2022-08-19T02:43:25;25.10;58.50
53978;DHT22;39886;47.984;-1.586;2022-08-19T02:45:51;25.10;58.50
53978;DHT22;39886;47.984;-1.586;2022-08-19T02:48:19;25.10;58.50
53978;DHT22;39886;47.984;-1.586;2022-08-19T02:50:46;25.10;58.50
53978;DHT22;39886;47.984;-1.586;2022-08-19T02:53:12;25.10;58.50
53978;DHT22;39886;47.984;-1.586;2022-08-19T02:55:46;25.10;58.60
53978;DHT22;39886;47.984;-1.586;2022-08-19T02:58:14;25.10;58.50
53978;DHT22;39886;47.984;-1.586;2022-08-19T03:00:50;25.10;58.60
53978;DHT22;39886;47.984;-1.586;2022-08-19T03:03:18;25.10;58.60
53978;DHT22;39886;47.984;-1.586;2022-08-19T03:05:44;25.00;58.50
53978;DHT22;39886;47.984;-1.586;2022-08-19T03:08:11;25.00;58.50
53978;DHT22;39886;47.984;-1.586;2022-08-19T03:10:47;25.00;58.60
53978;DHT22;39886;47.984;-1.586;2022-08-19T03:13:15;25.10;58.60
53978;DHT22;39886;47.984;-1.586;2022-08-19T03:15:43;25.00;58.50
53978;DHT22;39886;47.984;-1.586;2022-08-19T03:18:09;25.00;58.60
53978;DHT22;39886;47.984;-1.586;2022-08-19T03:20:50;25.00;58.60
53978;DHT22;39886;47.984;-1.586;2022-08-19T03:23:18;25.00;58.60
53978;DHT22;39886;47.984;-1.586;2022-08-19T03:25:46;25.00;58.60
53978;DHT22;39886;47.984;-1.586;2022-08-19T03:28:13;25.00;58.60
53978;DHT22;39886;47.984;-1.586;2022-08-19T03:30:40;25.00;58.60
53978;DHT22;39886;47.984;-1.586;2022-08-19T03:33:07;25.00;58.60
53978;DHT22;39886;47.984;-1.586;2022-08-19T03:35:33;25.00;58.60
53978;DHT22;39886;47.984;-1.586;2022-08-19T03:38:03;25.00;58.60
53978;DHT22;39886;47.984;-1.586;2022-08-19T03:40:28;25.00;58.60
53978;DHT22;39886;47.984;-1.586;2022-08-19T03:42:56;25.00;58.60
53978;DHT22;39886;47.984;-1.586;2022-08-19T03:45:23;25.00;58.60
53978;DHT22;39886;47.984;-1.586;2022-08-19T03:47:48;25.00;58.60
53978;DHT22;39886;47.984;-1.586;2022-08-19T03:50:14;25.00;58.60
53978;DHT22;39886;47.984;-1.586;2022-08-19T03:52:40;25.00;58.60
53978;DHT22;39886;47.984;-1.586;2022-08-19T03:55:06;25.00;58.60
53978;DHT22;39886;47.984;-1.586;2022-08-19T03:57:33;25.00;58.70
53978;DHT22;39886;47.984;-1.586;2022-08-19T04:00:00;25.00;58.60
53978;DHT22;39886;47.984;-1.586;2022-08-19T04:02:25;25.00;58.60
53978;DHT22;39886;47.984;-1.586;2022-08-19T04:04:53;25.00;58.60
53978;DHT22;39886;47.984;-1.586;2022-08-19T04:07:20;25.00;58.70
53978;DHT22;39886;47.984;-1.586;2022-08-19T04:09:47;25.00;58.60
53978;DHT22;39886;47.984;-1.586;2022-08-19T04:12:13;25.00;58.60
53978;DHT22;39886;47.984;-1.586;2022-08-19T04:14:40;25.00;58.60
53978;DHT22;39886;47.984;-1.586;2022-08-19T04:17:06;25.00;58.60
53978;DHT22;39886;47.984;-1.586;2022-08-19T04:19:34;25.00;58.60
53978;DHT22;39886;47.984;-1.586;2022-08-19T04:22:00;25.00;58.60
53978;DHT22;39886;47.984;-1.586;2022-08-19T04:24:26;25.00;58.70
53978;DHT22;39886;47.984;-1.586;2022-08-19T04:26:53;25.00;58.70
53978;DHT22;39886;47.984;-1.586;2022-08-19T04:29:22;25.00;58.70
53978;DHT22;39886;47.984;-1.586;2022-08-19T04:31:50;24.90;58.60
53978;DHT22;39886;47.984;-1.586;2022-08-19T04:34:18;25.00;58.70
53978;DHT22;39886;47.984;-1.586;2022-08-19T04:36:48;24.90;58.60
53978;DHT22;39886;47.984;-1.586;2022-08-19T04:39:18;24.90;58.70
53978;DHT22;39886;47.984;-1.586;2022-08-19T04:41:45;25.00;58.70
53978;DHT22;39886;47.984;-1.586;2022-08-19T04:44:34;25.00;58.70
53978;DHT22;39886;47.984;-1.586;2022-08-19T04:47:00;24.90;58.70
53978;DHT22;39886;47.984;-1.586;2022-08-19T04:49:26;25.00;58.70
53978;DHT22;39886;47.984;-1.586;2022-08-19T04:51:53;24.90;58.70
53978;DHT22;39886;47.984;-1.586;2022-08-19T04:54:24;24.90;58.70
53978;DHT22;39886;47.984;-1.586;2022-08-19T04:56:51;24.90;58.70
53978;DHT22;39886;47.984;-1.586;2022-08-19T04:59:19;24.90;58.70
53978;DHT22;39886;47.984;-1.586;2022-08-19T05:01:46;24.90;58.70
53978;DHT22;39886;47.984;-1.586;2022-08-19T05:04:16;24.90;58.70
53978;DHT22;39886;47.984;-1.586;2022-08-19T05:06:42;24.90;58.70
53978;DHT22;39886;47.984;-1.586;2022-08-19T05:09:08;24.90;58.70
53978;DHT22;39886;47.984;-1.586;2022-08-19T05:11:36;24.90;58.70
53978;DHT22;39886;47.984;-1.586;2022-08-19T05:14:07;24.90;58.70
53978;DHT22;39886;47.984;-1.586;2022-08-19T05:16:33;24.90;58.70
53978;DHT22;39886;47.984;-1.586;2022-08-19T05:18:59;25.00;58.70
53978;DHT22;39886;47.984;-1.586;2022-08-19T05:21:44;24.90;58.70
53978;DHT22;39886;47.984;-1.586;2022-08-19T05:24:28;24.90;58.70
53978;DHT22;39886;47.984;-1.586;2022-08-19T05:26:55;24.90;58.70
53978;DHT22;39886;47.984;-1.586;2022-08-19T05:29:26;24.90;58.70
53978;DHT22;39886;47.984;-1.586;2022-08-19T05:31:53;24.90;58.70
53978;DHT22;39886;47.984;-1.586;2022-08-19T05:34:20;24.90;58.70
53978;DHT22;39886;47.984;-1.586;2022-08-19T05:36:50;25.00;58.70
53978;DHT22;39886;47.984;-1.586;2022-08-19T05:39:19;24.90;58.70
53978;DHT22;39886;47.984;-1.586;2022-08-19T05:41:47;24.90;58.70
53978;DHT22;39886;47.984;-1.586;2022-08-19T05:44:14;24.90;59.40
53978;DHT22;39886;47.984;-1.586;2022-08-19T05:46:43;24.90;58.80
53978;DHT22;39886;47.984;-1.586;2022-08-19T05:49:09;24.90;58.70
53978;DHT22;39886;47.984;-1.586;2022-08-19T05:51:36;24.90;58.70
53978;DHT22;39886;47.984;-1.586;2022-08-19T05:54:05;24.90;58.70
53978;DHT22;39886;47.984;-1.586;2022-08-19T05:56:33;24.90;58.70
53978;DHT22;39886;47.984;-1.586;2022-08-19T05:59:02;24.90;58.80
53978;DHT22;39886;47.984;-1.586;2022-08-19T06:01:28;24.90;58.70
53978;DHT22;39886;47.984;-1.586;2022-08-19T06:03:53;24.90;58.80
53978;DHT22;39886;47.984;-1.586;2022-08-19T06:06:19;24.90;58.70
53978;DHT22;39886;47.984;-1.586;2022-08-19T06:08:45;24.90;58.70
53978;DHT22;39886;47.984;-1.586;2022-08-19T06:11:28;24.90;58.70
53978;DHT22;39886;47.984;-1.586;2022-08-19T06:13:59;24.90;58.70
53978;DHT22;39886;47.984;-1.586;2022-08-19T06:16:25;24.90;58.70
53978;DHT22;39886;47.984;-1.586;2022-08-19T06:18:53;24.90;58.70
53978;DHT22;39886;47.984;-1.586;2022-08-19T06:21:23;24.90;58.70
53978;DHT22;39886;47.984;-1.586;2022-08-19T06:23:50;24.90;58.70
53978;DHT22;39886;47.984;-1.586;2022-08-19T06:26:18;24.90;58.70
53978;DHT22;39886;47.984;-1.586;2022-08-19T06:28:45;24.90;58.70
53978;DHT22;39886;47.984;-1.586;2022-08-19T06:31:17;24.90;58.70
53978;DHT22;39886;47.984;-1.586;2022-08-19T06:33:44;24.90;58.80
53978;DHT22;39886;47.984;-1.586;2022-08-19T06:36:24;24.90;58.80
53978;DHT22;39886;47.984;-1.586;2022-08-19T06:39:04;24.90;59.30
53978;DHT22;39886;47.984;-1.586;2022-08-19T06:41:31;24.80;59.80
53978;DHT22;39886;47.984;-1.586;2022-08-19T06:43:57;24.80;59.90
53978;DHT22;39886;47.984;-1.586;2022-08-19T06:46:23;24.90;61.50
53978;DHT22;39886;47.984;-1.586;2022-08-19T06:48:49;24.80;61.00
53978;DHT22;39886;47.984;-1.586;2022-08-19T06:51:16;24.90;61.40
53978;DHT22;39886;47.984;-1.586;2022-08-19T06:53:50;24.80;61.90
53978;DHT22;39886;47.984;-1.586;2022-08-19T06:56:19;24.90;62.00
53978;DHT22;39886;47.984;-1.586;2022-08-19T06:58:46;24.80;62.00
53978;DHT22;39886;47.984;-1.586;2022-08-19T07:01:12;24.90;62.10
53978;DHT22;39886;47.984;-1.586;2022-08-19T07:03:39;24.80;63.20
53978;DHT22;39886;47.984;-1.586;2022-08-19T07:06:06;24.80;62.70
53978;DHT22;39886;47.984;-1.586;2022-08-19T07:08:34;24.80;62.90
53978;DHT22;39886;47.984;-1.586;2022-08-19T07:11:08;24.90;63.10
53978;DHT22;39886;47.984;-1.586;2022-08-19T07:13:35;24.90;63.30
53978;DHT22;39886;47.984;-1.586;2022-08-19T07:16:11;24.80;63.40
53978;DHT22;39886;47.984;-1.586;2022-08-19T07:18:37;24.80;63.90
53978;DHT22;39886;47.984;-1.586;2022-08-19T07:21:23;24.80;63.80
53978;DHT22;39886;47.984;-1.586;2022-08-19T07:23:50;24.80;63.90
53978;DHT22;39886;47.984;-1.586;2022-08-19T07:26:20;24.90;64.50
53978;DHT22;39886;47.984;-1.586;2022-08-19T07:28:47;24.90;64.50
53978;DHT22;39886;47.984;-1.586;2022-08-19T07:31:16;24.90;64.80
53978;DHT22;39886;47.984;-1.586;2022-08-19T07:33:44;24.90;64.90
53978;DHT22;39886;47.984;-1.586;2022-08-19T07:36:14;24.80;65.20
53978;DHT22;39886;47.984;-1.586;2022-08-19T07:38:42;24.90;65.40
53978;DHT22;39886;47.984;-1.586;2022-08-19T07:41:13;24.90;65.50
53978;DHT22;39886;47.984;-1.586;2022-08-19T07:43:40;24.80;65.60
53978;DHT22;39886;47.984;-1.586;2022-08-19T07:46:06;24.90;66.00
53978;DHT22;39886;47.984;-1.586;2022-08-19T07:48:32;24.90;66.20
53978;DHT22;39886;47.984;-1.586;2022-08-19T07:51:00;24.90;66.50
53978;DHT22;39886;47.984;-1.586;2022-08-19T07:53:31;24.80;66.40
53978;DHT22;39886;47.984;-1.586;2022-08-19T07:55:58;24.90;66.90
53978;DHT22;39886;47.984;-1.586;2022-08-19T07:58:30;24.90;66.80
53978;DHT22;39886;47.984;-1.586;2022-08-19T08:00:56;24.90;67.00
53978;DHT22;39886;47.984;-1.586;2022-08-19T08:03:23;24.80;66.80
53978;DHT22;39886;47.984;-1.586;2022-08-19T08:06:09;24.80;67.10
53978;DHT22;39886;47.984;-1.586;2022-08-19T08:08:53;24.80;67.20
53978;DHT22;39886;47.984;-1.586;2022-08-19T08:11:51;24.90;67.20
53978;DHT22;39886;47.984;-1.586;2022-08-19T08:14:21;24.80;67.30
53978;DHT22;39886;47.984;-1.586;2022-08-19T08:16:49;24.90;67.30
53978;DHT22;39886;47.984;-1.586;2022-08-19T08:19:17;24.90;67.30
53978;DHT22;39886;47.984;-1.586;2022-08-19T08:21:43;24.90;67.70
53978;DHT22;39886;47.984;-1.586;2022-08-19T08:24:10;24.90;67.20
53978;DHT22;39886;47.984;-1.586;2022-08-19T08:26:37;24.90;67.50
53978;DHT22;39886;47.984;-1.586;2022-08-19T08:29:03;24.90;67.60
53978;DHT22;39886;47.984;-1.586;2022-08-19T08:31:28;24.90;67.60
53978;DHT22;39886;47.984;-1.586;2022-08-19T08:33:54;24.90;67.60
53978;DHT22;39886;47.984;-1.586;2022-08-19T08:36:20;24.90;67.50
53978;DHT22;39886;47.984;-1.586;2022-08-19T08:38:46;25.00;67.70
53978;DHT22;39886;47.984;-1.586;2022-08-19T08:41:34;24.90;67.60
53978;DHT22;39886;47.984;-1.586;2022-08-19T08:44:01;25.00;67.80
53978;DHT22;39886;47.984;-1.586;2022-08-19T08:46:44;25.00;67.70
53978;DHT22;39886;47.984;-1.586;2022-08-19T08:49:45;25.00;67.50
53978;DHT22;39886;47.984;-1.586;2022-08-19T08:52:24;25.00;67.60
53978;DHT22;39886;47.984;-1.586;2022-08-19T08:54:53;25.00;67.50
53978;DHT22;39886;47.984;-1.586;2022-08-19T08:57:36;25.00;67.70
53978;DHT22;39886;47.984;-1.586;2022-08-19T09:00:07;25.00;67.90
53978;DHT22;39886;47.984;-1.586;2022-08-19T09:02:33;25.00;67.70
53978;DHT22;39886;47.984;-1.586;2022-08-19T09:04:58;25.00;67.70
53978;DHT22;39886;47.984;-1.586;2022-08-19T09:13:08;25.10;67.80
53978;DHT22;39886;47.984;-1.586;2022-08-19T09:15:46;25.10;67.80
53978;DHT22;39886;47.984;-1.586;2022-08-19T09:18:13;25.10;67.90
53978;DHT22;39886;47.984;-1.586;2022-08-19T09:20:39;25.10;67.80
53978;DHT22;39886;47.984;-1.586;2022-08-19T09:23:05;25.20;67.70
53978;DHT22;39886;47.984;-1.586;2022-08-19T09:25:31;25.20;67.60
53978;DHT22;39886;47.984;-1.586;2022-08-19T09:28:00;25.20;67.50
53978;DHT22;39886;47.984;-1.586;2022-08-19T09:30:31;25.20;67.50
53978;DHT22;39886;47.984;-1.586;2022-08-19T09:32:58;25.20;67.60
53978;DHT22;39886;47.984;-1.586;2022-08-19T09:35:27;25.20;67.60
53978;DHT22;39886;47.984;-1.586;2022-08-19T09:37:55;25.30;67.80
53978;DHT22;39886;47.984;-1.586;2022-08-19T09:40:22;25.30;67.70
53978;DHT22;39886;47.984;-1.586;2022-08-19T09:42:48;25.30;67.70
53978;DHT22;39886;47.984;-1.586;2022-08-19T09:45:15;25.30;67.60
53978;DHT22;39886;47.984;-1.586;2022-08-19T09:47:42;25.30;67.70
53978;DHT22;39886;47.984;-1.586;2022-08-19T09:50:10;25.30;67.70
53978;DHT22;39886;47.984;-1.586;2022-08-19T09:52:36;25.30;67.60
53978;DHT22;39886;47.984;-1.586;2022-08-19T09:55:06;25.30;67.50
53978;DHT22;39886;47.984;-1.586;2022-08-19T09:57:33;25.30;67.40
53978;DHT22;39886;47.984;-1.586;2022-08-19T09:59:59;25.30;67.70
53978;DHT22;39886;47.984;-1.586;2022-08-19T10:02:25;25.30;67.70
53978;DHT22;39886;47.984;-1.586;2022-08-19T10:04:51;25.40;67.50
53978;DHT22;39886;47.984;-1.586;2022-08-19T10:07:36;25.40;67.60
53978;DHT22;39886;47.984;-1.586;2022-08-19T10:10:06;25.40;67.30
53978;DHT22;39886;47.984;-1.586;2022-08-19T10:12:33;25.40;67.30
53978;DHT22;39886;47.984;-1.586;2022-08-19T10:14:59;25.40;67.30
53978;DHT22;39886;47.984;-1.586;2022-08-19T10:17:26;25.40;67.30
53978;DHT22;39886;47.984;-1.586;2022-08-19T10:19:52;25.40;67.40
53978;DHT22;39886;47.984;-1.586;2022-08-19T10:22:18;25.40;67.40
53978;DHT22;39886;47.984;-1.586;2022-08-19T10:24:46;25.40;67.40
53978;DHT22;39886;47.984;-1.586;2022-08-19T10:27:12;25.50;67.40
53978;DHT22;39886;47.984;-1.586;2022-08-19T10:29:39;25.50;67.20
53978;DHT22;39886;47.984;-1.586;2022-08-19T10:32:07;25.50;67.10
53978;DHT22;39886;47.984;-1.586;2022-08-19T10:34:35;25.50;67.00
53978;DHT22;39886;47.984;-1.586;2022-08-19T10:37:02;25.60;66.90
53978;DHT22;39886;47.984;-1.586;2022-08-19T10:39:32;25.50;66.70
53978;DHT22;39886;47.984;-1.586;2022-08-19T10:41:58;25.60;66.70
53978;DHT22;39886;47.984;-1.586;2022-08-19T10:44:24;25.60;66.60
53978;DHT22;39886;47.984;-1.586;2022-08-19T10:46:50;25.60;66.60
53978;DHT22;39886;47.984;-1.586;2022-08-19T10:49:18;25.60;66.50
53978;DHT22;39886;47.984;-1.586;2022-08-19T10:51:44;25.60;66.50
53978;DHT22;39886;47.984;-1.586;2022-08-19T10:54:29;25.60;66.40
53978;DHT22;39886;47.984;-1.586;2022-08-19T10:57:14;25.60;66.40
53978;DHT22;39886;47.984;-1.586;2022-08-19T10:59:40;25.60;66.30
53978;DHT22;39886;47.984;-1.586;2022-08-19T11:02:08;25.60;66.30
53978;DHT22;39886;47.984;-1.586;2022-08-19T11:04:36;25.60;66.30
53978;DHT22;39886;47.984;-1.586;2022-08-19T11:07:03;25.60;66.20
53978;DHT22;39886;47.984;-1.586;2022-08-19T11:09:30;25.70;66.30
53978;DHT22;39886;47.984;-1.586;2022-08-19T11:11:56;25.70;66.20
53978;DHT22;39886;47.984;-1.586;2022-08-19T11:14:23;25.70;66.20
53978;DHT22;39886;47.984;-1.586;2022-08-19T11:16:52;25.70;66.10
53978;DHT22;39886;47.984;-1.586;2022-08-19T11:19:22;25.70;66.10
53978;DHT22;39886;47.984;-1.586;2022-08-19T11:21:50;25.70;66.00
53978;DHT22;39886;47.984;-1.586;2022-08-19T11:24:21;25.70;66.00
53978;DHT22;39886;47.984;-1.586;2022-08-19T11:26:49;25.70;66.00
53978;DHT22;39886;47.984;-1.586;2022-08-19T11:29:17;25.70;66.00
53978;DHT22;39886;47.984;-1.586;2022-08-19T11:31:45;25.70;65.90
53978;DHT22;39886;47.984;-1.586;2022-08-19T11:34:14;25.80;66.00
53978;DHT22;39886;47.984;-1.586;2022-08-19T11:36:44;25.80;65.90
53978;DHT22;39886;47.984;-1.586;2022-08-19T11:39:13;25.80;66.50
53978;DHT22;39886;47.984;-1.586;2022-08-19T11:41:39;25.80;65.80
53978;DHT22;39886;47.984;-1.586;2022-08-19T11:44:05;25.80;65.70
53978;DHT22;39886;47.984;-1.586;2022-08-19T11:46:34;25.80;65.70
53978;DHT22;39886;47.984;-1.586;2022-08-19T11:49:01;25.80;65.60
53978;DHT22;39886;47.984;-1.586;2022-08-19T11:51:29;25.80;65.60
53978;DHT22;39886;47.984;-1.586;2022-08-19T11:53:56;25.80;65.60
53978;DHT22;39886;47.984;-1.586;2022-08-19T11:56:23;25.80;65.50
53978;DHT22;39886;47.984;-1.586;2022-08-19T11:58:50;25.80;65.50
53978;DHT22;39886;47.984;-1.586;2022-08-19T12:01:19;25.80;65.70
53978;DHT22;39886;47.984;-1.586;2022-08-19T12:03:47;25.80;66.00
53978;DHT22;39886;47.984;-1.586;2022-08-19T12:06:19;25.80;66.60
53978;DHT22;39886;47.984;-1.586;2022-08-19T12:08:46;25.80;67.70
53978;DHT22;39886;47.984;-1.586;2022-08-19T12:11:13;25.70;68.10
53978;DHT22;39886;47.984;-1.586;2022-08-19T12:13:40;25.70;67.80
53978;DHT22;39886;47.984;-1.586;2022-08-19T12:16:11;25.70;68.50
53978;DHT22;39886;47.984;-1.586;2022-08-19T12:18:38;25.70;68.20
53978;DHT22;39886;47.984;-1.586;2022-08-19T12:21:04;25.70;69.00
53978;DHT22;39886;47.984;-1.586;2022-08-19T12:23:30;25.70;69.50
53978;DHT22;39886;47.984;-1.586;2022-08-19T12:25:56;25.70;69.40
53978;DHT22;39886;47.984;-1.586;2022-08-19T12:28:23;25.60;69.70
53978;DHT22;39886;47.984;-1.586;2022-08-19T12:30:50;25.60;69.80
53978;DHT22;39886;47.984;-1.586;2022-08-19T12:33:18;25.60;70.10
53978;DHT22;39886;47.984;-1.586;2022-08-19T12:35:45;25.60;70.10
53978;DHT22;39886;47.984;-1.586;2022-08-19T12:38:14;25.60;70.50
53978;DHT22;39886;47.984;-1.586;2022-08-19T12:40:40;25.60;70.90
53978;DHT22;39886;47.984;-1.586;2022-08-19T12:43:07;25.60;71.30
53978;DHT22;39886;47.984;-1.586;2022-08-19T12:45:34;25.60;71.50
53978;DHT22;39886;47.984;-1.586;2022-08-19T12:48:00;25.60;71.80
53978;DHT22;39886;47.984;-1.586;2022-08-19T12:50:26;25.60;72.00
53978;DHT22;39886;47.984;-1.586;2022-08-19T12:52:51;25.60;72.50
53978;DHT22;39886;47.984;-1.586;2022-08-19T12:55:18;25.60;72.40
53978;DHT22;39886;47.984;-1.586;2022-08-19T12:57:44;25.60;72.50
53978;DHT22;39886;47.984;-1.586;2022-08-19T13:00:16;25.60;72.60
53978;DHT22;39886;47.984;-1.586;2022-08-19T13:02:45;25.60;72.70
53978;DHT22;39886;47.984;-1.586;2022-08-19T13:05:16;25.60;72.90
53978;DHT22;39886;47.984;-1.586;2022-08-19T13:07:45;25.60;73.40
53978;DHT22;39886;47.984;-1.586;2022-08-19T13:10:13;25.60;73.80
53978;DHT22;39886;47.984;-1.586;2022-08-19T13:12:41;25.50;73.80
53978;DHT22;39886;47.984;-1.586;2022-08-19T13:15:08;25.50;73.60
53978;DHT22;39886;47.984;-1.586;2022-08-19T13:17:35;25.50;73.60
53978;DHT22;39886;47.984;-1.586;2022-08-19T13:20:01;25.50;73.50
53978;DHT22;39886;47.984;-1.586;2022-08-19T13:22:27;25.50;73.40
53978;DHT22;39886;47.984;-1.586;2022-08-19T13:24:53;25.60;73.50
53978;DHT22;39886;47.984;-1.586;2022-08-19T13:27:18;25.50;73.40
53978;DHT22;39886;47.984;-1.586;2022-08-19T13:29:44;25.50;73.40
53978;DHT22;39886;47.984;-1.586;2022-08-19T13:32:29;25.50;73.50
53978;DHT22;39886;47.984;-1.586;2022-08-19T13:35:16;25.50;74.20
53978;DHT22;39886;47.984;-1.586;2022-08-19T13:37:42;25.50;73.50
53978;DHT22;39886;47.984;-1.586;2022-08-19T13:40:11;25.50;73.60
53978;DHT22;39886;47.984;-1.586;2022-08-19T13:42:38;25.50;73.60
53978;DHT22;39886;47.984;-1.586;2022-08-19T13:45:05;25.50;73.60
53978;DHT22;39886;47.984;-1.586;2022-08-19T13:47:32;25.50;73.50
53978;DHT22;39886;47.984;-1.586;2022-08-19T13:50:02;25.50;73.50
53978;DHT22;39886;47.984;-1.586;2022-08-19T13:52:28;25.50;73.50
53978;DHT22;39886;47.984;-1.586;2022-08-19T13:54:54;25.50;73.40
53978;DHT22;39886;47.984;-1.586;2022-08-19T13:57:20;25.50;73.30
53978;DHT22;39886;47.984;-1.586;2022-08-19T13:59:46;25.40;73.10
53978;DHT22;39886;47.984;-1.586;2022-08-19T14:02:12;25.40;72.90
53978;DHT22;39886;47.984;-1.586;2022-08-19T14:04:37;25.40;72.80
53978;DHT22;39886;47.984;-1.586;2022-08-19T14:07:03;25.40;72.70
53978;DHT22;39886;47.984;-1.586;2022-08-19T14:09:30;25.40;72.50
53978;DHT22;39886;47.984;-1.586;2022-08-19T14:11:55;25.40;72.30
53978;DHT22;39886;47.984;-1.586;2022-08-19T14:14:21;25.50;72.40
53978;DHT22;39886;47.984;-1.586;2022-08-19T14:16:48;25.50;72.30
53978;DHT22;39886;47.984;-1.586;2022-08-19T14:19:14;25.50;72.20
53978;DHT22;39886;47.984;-1.586;2022-08-19T14:21:39;25.50;72.00
53978;DHT22;39886;47.984;-1.586;2022-08-19T14:24:06;25.50;71.80
53978;DHT22;39886;47.984;-1.586;2022-08-19T14:26:32;25.50;71.70
53978;DHT22;39886;47.984;-1.586;2022-08-19T14:28:58;25.60;72.50
53978;DHT22;39886;47.984;-1.586;2022-08-19T14:31:24;25.60;71.80
53978;DHT22;39886;47.984;-1.586;2022-08-19T14:33:50;25.60;71.80
53978;DHT22;39886;47.984;-1.586;2022-08-19T14:36:17;25.60;71.80
53978;DHT22;39886;47.984;-1.586;2022-08-19T14:38:44;25.50;71.70
53978;DHT22;39886;47.984;-1.586;2022-08-19T14:41:19;25.50;71.70
53978;DHT22;39886;47.984;-1.586;2022-08-19T14:43:47;25.50;71.70
53978;DHT22;39886;47.984;-1.586;2022-08-19T14:46:15;25.60;71.70
53978;DHT22;39886;47.984;-1.586;2022-08-19T14:48:42;25.60;71.70
53978;DHT22;39886;47.984;-1.586;2022-08-19T14:51:08;25.60;71.70
53978;DHT22;39886;47.984;-1.586;2022-08-19T14:53:34;25.50;71.70
53978;DHT22;39886;47.984;-1.586;2022-08-19T14:56:00;25.50;71.70
53978;DHT22;39886;47.984;-1.586;2022-08-19T14:58:27;25.50;71.60
53978;DHT22;39886;47.984;-1.586;2022-08-19T15:00:52;25.50;71.60
53978;DHT22;39886;47.984;-1.586;2022-08-19T15:03:18;25.50;71.60
53978;DHT22;39886;47.984;-1.586;2022-08-19T15:05:44;25.50;71.60
53978;DHT22;39886;47.984;-1.586;2022-08-19T15:08:10;25.50;71.60
53978;DHT22;39886;47.984;-1.586;2022-08-19T15:10:38;25.50;71.60
53978;DHT22;39886;47.984;-1.586;2022-08-19T15:13:04;25.50;71.50
53978;DHT22;39886;47.984;-1.586;2022-08-19T15:15:29;25.50;71.50
53978;DHT22;39886;47.984;-1.586;2022-08-19T15:17:55;25.50;71.40
53978;DHT22;39886;47.984;-1.586;2022-08-19T15:20:27;25.50;71.40
53978;DHT22;39886;47.984;-1.586;2022-08-19T15:22:53;25.50;71.40
53978;DHT22;39886;47.984;-1.586;2022-08-19T15:25:19;25.50;71.30
53978;DHT22;39886;47.984;-1.586;2022-08-19T15:27:46;25.50;71.30